Time;durP1;ratioP1;P1;durP2;ratioP2;P2;SDS_P1;SDS_P2;PMS_P1;PMS_P2;Temp;Humidity;BMP_temperature;BMP_pressure;BME280_temperature;BME280_humidity;BME280_pressure;Samples;Min_cycle;Max_cycle;Signal;HPM_P1;HPM_P2
2021/01/02 00:02:31;;;;;;;22.27;11.10;;;3.20;90.30;;;;;;5053229;28;20039;-73
2021/01/02 00:05:14;;;;;;;23.23;10.68;;;3.20;90.30;;;;;;5051152;28;20029;-73
2021/01/02 00:08:20;;;;;;;23.93;11.30;;;3.20;90.30;;;;;;5051448;28;20056;-74
2021/01/02 00:11:17;;;;;;;20.67;10.13;;;3.30;90.30;;;;;;5051111;28;20055;-73
2021/01/02 00:14:25;;;;;;;23.00;11.17;;;3.20;90.40;;;;;;5051147;28;20108;-73
2021/01/02 00:17:12;;;;;;;21.83;10.00;;;3.20;90.50;;;;;;5037150;28;20090;-74
2021/01/02 00:19:56;;;;;;;19.43;10.10;;;3.20;90.40;;;;;;5052305;28;20032;-73
2021/01/02 00:22:40;;;;;;;18.27;10.20;;;3.30;90.30;;;;;;5051524;28;20068;-73
2021/01/02 00:25:11;;;;;;;20.57;9.70;;;3.30;90.30;;;;;;5051493;28;20130;-73
2021/01/02 00:27:51;;;;;;;20.50;9.88;;;3.30;90.30;;;;;;5050946;28;20124;-73
2021/01/02 00:30:44;;;;;;;22.10;10.37;;;3.30;90.20;;;;;;5052818;28;20025;-74
2021/01/02 00:33:28;;;;;;;22.37;10.60;;;3.30;90.30;;;;;;5051717;28;20036;-74
2021/01/02 00:36:03;;;;;;;20.03;9.83;;;3.30;90.30;;;;;;5052120;28;20486;-73
2021/01/02 00:38:29;;;;;;;23.60;10.37;;;3.30;90.30;;;;;;5051115;28;20036;-73
2021/01/02 00:40:55;;;;;;;22.97;11.00;;;3.30;90.30;;;;;;5052233;28;20033;-73
2021/01/02 00:43:21;;;;;;;22.90;11.27;;;3.40;90.30;;;;;;5052569;28;20127;-73
2021/01/02 00:45:46;;;;;;;22.47;10.60;;;3.40;90.30;;;;;;5050598;28;20040;-73
2021/01/02 00:48:14;;;;;;;22.67;10.90;;;3.40;90.30;;;;;;5052471;28;20107;-74
2021/01/02 00:50:40;;;;;;;23.60;10.97;;;3.40;90.10;;;;;;5050483;28;20466;-73
2021/01/02 00:53:29;;;;;;;24.90;11.27;;;3.40;90.20;;;;;;5052426;28;20101;-73
2021/01/02 00:56:12;;;;;;;26.80;11.50;;;3.30;90.20;;;;;;5050310;28;20033;-73
2021/01/02 00:59:07;;;;;;;25.87;10.20;;;3.40;90.20;;;;;;5052036;28;20419;-73
2021/01/02 01:01:45;;;;;;;25.60;11.33;;;3.40;90.30;;;;;;5052390;28;20163;-73
2021/01/02 01:04:22;;;;;;;28.47;11.80;;;3.30;90.20;;;;;;5051040;28;20064;-73
2021/01/02 01:06:54;;;;;;;24.17;10.67;;;3.40;90.10;;;;;;5050528;28;20056;-73
2021/01/02 01:09:23;;;;;;;25.83;11.17;;;3.40;90.00;;;;;;5051213;28;20021;-73
2021/01/02 01:11:53;;;;;;;24.13;11.37;;;3.40;90.10;;;;;;5050329;28;20124;-73
2021/01/02 01:14:20;;;;;;;23.93;10.90;;;3.40;90.20;;;;;;5052252;28;20021;-74
2021/01/02 01:16:50;;;;;;;22.53;10.40;;;3.40;90.20;;;;;;5051615;28;20036;-73
2021/01/02 01:19:20;;;;;;;22.07;9.80;;;3.40;90.10;;;;;;5050944;28;20146;-73
2021/01/02 01:21:50;;;;;;;25.53;10.63;;;3.50;90.00;;;;;;5050037;28;20417;-73
2021/01/02 01:24:23;;;;;;;25.00;11.17;;;3.50;89.80;;;;;;5050837;28;20052;-73
2021/01/02 01:27:05;;;;;;;24.60;11.53;;;3.50;89.60;;;;;;5051466;28;20049;-73
2021/01/02 01:29:50;;;;;;;24.80;11.02;;;3.40;90.00;;;;;;5050754;28;20025;-73
2021/01/02 01:32:26;;;;;;;23.93;10.63;;;3.40;90.00;;;;;;5052089;28;20025;-73
2021/01/02 01:35:00;;;;;;;22.37;10.63;;;3.50;89.90;;;;;;5050289;28;20103;-73
2021/01/02 01:37:31;;;;;;;24.90;11.13;;;3.50;89.80;;;;;;5050463;28;20029;-73
2021/01/02 01:39:57;;;;;;;24.07;10.97;;;3.50;90.00;;;;;;5051442;28;20017;-73
2021/01/02 01:42:49;;;;;;;27.53;12.00;;;3.50;90.00;;;;;;5050791;28;20025;-73
2021/01/02 01:45:21;;;;;;;29.08;11.00;;;3.50;89.90;;;;;;5047166;28;20059;-73
2021/01/02 01:48:25;;;;;;;25.52;11.88;;;3.50;90.00;;;;;;5053917;28;20033;-73
2021/01/02 01:51:15;;;;;;;29.77;12.33;;;3.50;90.00;;;;;;5051259;28;20037;-73
2021/01/02 01:54:20;;;;;;;29.33;12.13;;;3.50;90.00;;;;;;5053991;28;20025;-73
2021/01/02 01:56:50;;;;;;;27.73;11.97;;;3.50;89.70;;;;;;5055076;28;20063;-73
2021/01/02 01:59:20;;;;;;;29.93;12.13;;;3.50;89.80;;;;;;5055640;28;20063;-73
2021/01/02 02:01:49;;;;;;;27.37;11.83;;;3.50;89.80;;;;;;5053733;28;20025;-73
2021/01/02 02:04:52;;;;;;;28.50;11.17;;;3.40;89.80;;;;;;5054114;28;20036;-73
2021/01/02 02:07:20;;;;;;;33.78;13.38;;;3.50;90.00;;;;;;5054030;28;20021;-73
2021/01/02 02:10:00;;;;;;;32.33;13.07;;;3.50;89.90;;;;;;5053173;28;20021;-73
2021/01/02 02:12:32;;;;;;;30.40;12.83;;;3.50;89.40;;;;;;5054294;28;20111;-73
2021/01/02 02:14:58;;;;;;;28.87;12.43;;;3.50;89.70;;;;;;5053505;28;20055;-73
2021/01/02 02:17:25;;;;;;;29.87;12.63;;;3.60;89.60;;;;;;5055517;28;20447;-73
2021/01/02 02:19:55;;;;;;;31.73;13.43;;;3.60;89.60;;;;;;5054559;28;20032;-73
2021/01/02 02:22:26;;;;;;;27.63;12.43;;;3.60;89.40;;;;;;5055116;28;20033;-73
2021/01/02 02:24:54;;;;;;;28.73;12.70;;;3.60;89.20;;;;;;5054519;28;20045;-73
2021/01/02 02:27:28;;;;;;;31.77;12.53;;;3.60;89.20;;;;;;5053773;28;20485;-73
2021/01/02 02:30:13;;;;;;;32.90;13.43;;;3.60;89.20;;;;;;5053186;28;20021;-73
2021/01/02 02:32:49;;;;;;;32.43;13.90;;;3.60;89.50;;;;;;5053722;28;20024;-73
2021/01/02 02:35:19;;;;;;;34.67;13.90;;;3.70;89.20;;;;;;5053569;28;20060;-73
2021/01/02 02:37:50;;;;;;;37.30;13.90;;;3.60;89.30;;;;;;5053012;28;20033;-73
2021/01/02 02:40:18;;;;;;;33.33;13.33;;;3.60;89.30;;;;;;5053647;28;20021;-73
2021/01/02 02:43:02;;;;;;;32.10;13.13;;;3.60;89.30;;;;;;5053094;28;20075;-73
2021/01/02 02:45:29;;;;;;;35.20;13.57;;;3.60;89.30;;;;;;5053556;28;20069;-73
2021/01/02 02:47:58;;;;;;;34.00;13.47;;;3.50;89.10;;;;;;5053698;28;20470;-73
2021/01/02 02:50:27;;;;;;;35.00;13.83;;;3.50;89.30;;;;;;5054404;28;20036;-73
2021/01/02 02:53:08;;;;;;;33.33;13.07;;;3.60;89.10;;;;;;5053974;28;20036;-73
2021/01/02 02:55:38;;;;;;;34.90;13.65;;;3.60;89.00;;;;;;5054605;28;20075;-73
2021/01/02 02:58:05;;;;;;;34.40;14.33;;;3.60;88.90;;;;;;5051487;28;20059;-73
2021/01/02 03:00:30;;;;;;;32.00;13.63;;;3.60;89.20;;;;;;5053290;28;20075;-73
2021/01/02 03:02:56;;;;;;;32.30;12.63;;;3.60;89.20;;;;;;5053839;28;20053;-73
2021/01/02 03:05:22;;;;;;;31.90;13.30;;;3.60;89.30;;;;;;5054264;28;20040;-73
2021/01/02 03:07:49;;;;;;;32.63;12.80;;;3.60;89.50;;;;;;5052465;28;20033;-73
2021/01/02 03:10:18;;;;;;;34.90;13.30;;;3.50;89.40;;;;;;5054306;28;20100;-73
2021/01/02 03:12:46;;;;;;;28.43;12.33;;;3.50;90.00;;;;;;5052963;28;20025;-73
2021/01/02 03:15:13;;;;;;;28.90;13.03;;;3.50;89.50;;;;;;5053064;28;20029;-73
2021/01/02 03:17:40;;;;;;;27.47;11.57;;;3.50;89.60;;;;;;5054118;28;20026;-74
2021/01/02 03:20:07;;;;;;;29.07;12.37;;;3.50;89.80;;;;;;5052083;28;20037;-73
2021/01/02 03:22:32;;;;;;;29.73;11.83;;;3.50;89.80;;;;;;5052800;28;20032;-73
2021/01/02 03:24:58;;;;;;;28.40;12.13;;;3.60;89.60;;;;;;5053269;28;20124;-73
2021/01/02 03:27:24;;;;;;;26.50;11.73;;;3.60;89.60;;;;;;5052662;28;20082;-73
2021/01/02 03:29:49;;;;;;;26.67;12.03;;;3.60;89.50;;;;;;5052108;28;20066;-73
2021/01/02 03:32:15;;;;;;;27.00;11.70;;;3.60;89.50;;;;;;5053910;28;20057;-73
2021/01/02 03:34:41;;;;;;;26.47;11.13;;;3.50;89.80;;;;;;5053862;28;20112;-73
2021/01/02 03:37:08;;;;;;;27.60;11.90;;;3.50;90.00;;;;;;5053210;28;20317;-73
2021/01/02 03:39:34;;;;;;;26.47;11.37;;;3.50;90.00;;;;;;5052625;28;20029;-73
2021/01/02 03:42:00;;;;;;;30.00;11.57;;;3.60;89.90;;;;;;5052729;28;20083;-73
2021/01/02 03:44:25;;;;;;;24.00;11.00;;;3.60;89.80;;;;;;5053561;28;20037;-73
2021/01/02 03:46:51;;;;;;;24.93;10.80;;;3.50;89.50;;;;;;5052954;28;20462;-73
2021/01/02 03:49:16;;;;;;;25.90;10.67;;;3.50;90.00;;;;;;5053746;28;20036;-73
2021/01/02 03:51:42;;;;;;;28.60;11.70;;;3.40;90.00;;;;;;5053742;28;20029;-74
2021/01/02 03:54:08;;;;;;;25.73;11.00;;;3.40;90.10;;;;;;5051625;28;20154;-73
2021/01/02 03:56:33;;;;;;;26.70;11.00;;;3.40;90.10;;;;;;5053342;28;20025;-73
2021/01/02 03:58:59;;;;;;;27.43;11.20;;;3.40;90.10;;;;;;5051500;28;20017;-73
2021/01/02 04:01:24;;;;;;;22.30;10.87;;;3.40;90.10;;;;;;5052099;28;20374;-75
2021/01/02 04:03:50;;;;;;;22.53;11.27;;;3.50;90.10;;;;;;5052525;28;20029;-73
2021/01/02 04:06:24;;;;;;;24.77;11.43;;;3.40;90.10;;;;;;5052093;28;20029;-73
2021/01/02 04:08:49;;;;;;;26.83;12.03;;;3.40;90.10;;;;;;5051035;28;20025;-73
2021/01/02 04:11:15;;;;;;;24.17;10.87;;;3.40;90.10;;;;;;5051795;28;20025;-74
2021/01/02 04:13:41;;;;;;;30.10;12.67;;;3.40;90.10;;;;;;5051799;28;20386;-73
2021/01/02 04:16:06;;;;;;;26.40;12.10;;;3.40;90.10;;;;;;5051158;28;20060;-73
2021/01/02 04:18:33;;;;;;;29.63;11.87;;;3.40;90.10;;;;;;5052947;28;20106;-73
2021/01/02 04:20:58;;;;;;;26.60;11.23;;;3.40;90.10;;;;;;5051304;28;20036;-73
2021/01/02 04:23:25;;;;;;;24.17;11.23;;;3.40;90.10;;;;;;5051623;28;20033;-73
2021/01/02 04:25:50;;;;;;;30.87;11.90;;;3.40;90.10;;;;;;5050664;28;20088;-73
2021/01/02 04:28:16;;;;;;;29.03;11.97;;;3.40;90.10;;;;;;5052822;28;20057;-73
2021/01/02 04:30:41;;;;;;;24.13;11.43;;;3.40;90.20;;;;;;5052786;28;20028;-73
2021/01/02 04:33:07;;;;;;;29.70;11.30;;;3.40;90.20;;;;;;5050858;28;20071;-73
2021/01/02 04:35:33;;;;;;;27.70;11.50;;;3.40;90.20;;;;;;5052806;28;20032;-73
2021/01/02 04:38:03;;;;;;;26.87;12.37;;;3.40;90.10;;;;;;5050831;28;20029;-73
2021/01/02 04:40:29;;;;;;;29.77;12.20;;;3.40;90.10;;;;;;5052669;28;20071;-73
2021/01/02 04:42:55;;;;;;;24.97;11.03;;;3.40;90.20;;;;;;5050709;28;20056;-72
2021/01/02 04:45:21;;;;;;;30.77;12.53;;;3.40;90.20;;;;;;5051436;28;20037;-73
2021/01/02 04:47:49;;;;;;;31.40;12.90;;;3.30;90.20;;;;;;5051226;28;20029;-74
2021/01/02 04:50:14;;;;;;;24.90;11.93;;;3.40;90.30;;;;;;5051920;28;20104;-73
2021/01/02 04:52:41;;;;;;;28.07;11.93;;;3.30;90.20;;;;;;5052464;28;20087;-74
2021/01/02 04:55:08;;;;;;;28.73;11.73;;;3.40;90.30;;;;;;5050230;28;20033;-73
2021/01/02 04:57:38;;;;;;;27.90;12.70;;;3.40;90.30;;;;;;5051131;28;20025;-73
2021/01/02 05:00:08;;;;;;;30.20;12.30;;;3.40;90.20;;;;;;5050522;28;20025;-73
2021/01/02 05:02:36;;;;;;;27.50;12.73;;;3.40;90.30;;;;;;5052354;28;20047;-73
2021/01/02 05:05:04;;;;;;;27.93;12.57;;;3.30;90.30;;;;;;5051681;28;20048;-73
2021/01/02 05:07:30;;;;;;;30.33;12.40;;;3.40;90.40;;;;;;5051076;28;20029;-73
2021/01/02 05:09:57;;;;;;;30.20;11.83;;;3.30;90.40;;;;;;5051736;28;20111;-73
2021/01/02 05:12:30;;;;;;;27.67;12.13;;;3.30;90.30;;;;;;5052294;28;20071;-74
2021/01/02 05:15:16;;;;;;;26.90;12.87;;;3.40;90.30;;;;;;5051697;28;20024;-73
2021/01/02 05:17:42;;;;;;;36.20;14.00;;;3.30;90.30;;;;;;5051191;28;20061;-73
2021/01/02 05:20:13;;;;;;;32.03;13.00;;;3.30;90.40;;;;;;5051262;28;20052;-73
2021/01/02 05:22:41;;;;;;;27.60;12.67;;;3.30;90.40;;;;;;5056109;28;20075;-73
2021/01/02 05:25:26;;;;;;;28.83;12.50;;;3.20;90.40;;;;;;5055518;28;20095;-73
2021/01/02 05:27:52;;;;;;;31.87;12.40;;;3.20;90.50;;;;;;5055694;28;20043;-74
2021/01/02 05:30:28;;;;;;;32.20;12.93;;;3.20;90.50;;;;;;5054478;28;20036;-73
2021/01/02 05:32:57;;;;;;;29.37;12.13;;;3.20;90.60;;;;;;5055933;28;20063;-72
2021/01/02 05:35:23;;;;;;;29.53;12.17;;;3.20;90.50;;;;;;5054806;28;20053;-73
2021/01/02 05:37:49;;;;;;;25.97;11.80;;;3.20;90.60;;;;;;5054721;28;20051;-73
2021/01/02 05:40:35;;;;;;;29.17;12.43;;;3.20;90.50;;;;;;5055376;28;20033;-73
2021/01/02 05:43:01;;;;;;;27.27;11.27;;;3.20;90.50;;;;;;5054042;28;20028;-73
2021/01/02 05:45:28;;;;;;;26.77;11.63;;;3.20;90.50;;;;;;5055827;28;20075;-73
2021/01/02 05:48:19;;;;;;;26.27;11.40;;;3.20;90.50;;;;;;5054689;28;20028;-73
2021/01/02 05:50:47;;;;;;;26.13;11.20;;;3.20;90.50;;;;;;5048832;28;20040;-73
2021/01/02 05:53:23;;;;;;;28.93;12.37;;;3.30;90.50;;;;;;5055135;28;20029;-73
2021/01/02 05:56:13;;;;;;;26.50;11.50;;;3.30;90.40;;;;;;5055605;28;20048;-73
2021/01/02 05:58:45;;;;;;;28.27;11.60;;;3.30;90.40;;;;;;5055345;28;20398;-73
2021/01/02 06:01:14;;;;;;;25.17;11.27;;;3.30;90.30;;;;;;5055009;28;20029;-73
2021/01/02 06:03:42;;;;;;;25.60;10.53;;;3.30;90.30;;;;;;5055465;28;20036;-73
2021/01/02 06:06:10;;;;;;;25.40;11.50;;;3.30;90.30;;;;;;5054800;28;20044;-73
2021/01/02 06:08:38;;;;;;;22.43;10.20;;;3.40;90.30;;;;;;5055521;28;20025;-73
2021/01/02 06:11:10;;;;;;;24.63;10.87;;;3.40;90.20;;;;;;5054798;28;20055;-73
2021/01/02 06:13:37;;;;;;;;;;;3.40;90.20;;;;;;5055806;28;20028;-73
2021/01/02 06:16:05;;;;;;;19.70;9.90;;;3.40;90.20;;;;;;5053053;28;19944;-73
2021/01/02 06:18:42;;;;;;;22.13;9.30;;;3.30;90.20;;;;;;5054193;28;20029;-73
2021/01/02 06:21:13;;;;;;;26.70;10.43;;;3.30;90.60;;;;;;5053314;28;20025;-73
2021/01/02 06:23:41;;;;;;;21.85;10.32;;;3.40;90.20;;;;;;5055075;28;20493;-73
2021/01/02 06:26:09;;;;;;;24.63;11.00;;;3.40;90.10;;;;;;5054619;28;20025;-73
2021/01/02 06:28:36;;;;;;;22.60;9.70;;;3.40;90.20;;;;;;5053837;28;20025;-73
2021/01/02 06:31:10;;;;;;;25.53;11.17;;;3.40;90.20;;;;;;5054242;28;20017;-73
2021/01/02 06:33:36;;;;;;;23.90;11.03;;;3.30;90.30;;;;;;5053714;28;20035;-74
2021/01/02 06:36:03;;;;;;;24.73;10.97;;;3.30;90.40;;;;;;5053031;28;20021;-73
2021/01/02 06:38:29;;;;;;;24.47;11.27;;;3.30;90.40;;;;;;5053869;28;20029;-74
2021/01/02 06:40:57;;;;;;;23.47;11.10;;;3.30;90.40;;;;;;5054877;28;20025;-73
2021/01/02 06:43:45;;;;;;;25.83;11.50;;;3.30;90.30;;;;;;5054651;28;20021;-73
2021/01/02 06:46:11;;;;;;;21.33;10.30;;;3.30;90.30;;;;;;5052459;28;20041;-73
2021/01/02 06:48:38;;;;;;;24.27;11.27;;;3.30;90.30;;;;;;5053471;28;20119;-73
2021/01/02 06:51:27;;;;;;;23.63;11.10;;;3.30;90.30;;;;;;5054234;28;20033;-74
2021/01/02 06:53:53;;;;;;;24.37;10.83;;;3.30;90.30;;;;;;5054372;28;20059;-74
2021/01/02 06:56:29;;;;;;;24.83;11.03;;;3.30;90.30;;;;;;5053795;28;20033;-73
2021/01/02 06:58:54;;;;;;;24.63;11.33;;;3.30;90.30;;;;;;5054815;28;20060;-74
2021/01/02 07:01:20;;;;;;;24.57;10.90;;;3.30;90.40;;;;;;5053898;28;20075;-73
2021/01/02 07:03:47;;;;;;;21.73;10.57;;;3.20;90.40;;;;;;5053054;28;20074;-74
2021/01/02 07:06:26;;;;;;;22.03;10.80;;;3.30;90.50;;;;;;5052603;28;20413;-74
2021/01/02 07:09:02;;;;;;;24.43;11.17;;;3.30;90.40;;;;;;5053227;28;20032;-74
2021/01/02 07:11:34;;;;;;;23.87;11.07;;;3.20;90.30;;;;;;5054570;28;20025;-74
2021/01/02 07:14:12;;;;;;;22.37;10.53;;;3.20;90.40;;;;;;5053647;28;20024;-72
2021/01/02 07:16:43;;;;;;;24.10;10.10;;;3.20;90.40;;;;;;5053131;28;20036;-73
2021/01/02 07:19:27;;;;;;;23.05;10.60;;;3.20;90.30;;;;;;5052383;28;20075;-73
2021/01/02 07:21:58;;;;;;;21.63;9.13;;;3.20;90.50;;;;;;5053639;28;20061;-73
2021/01/02 07:24:30;;;;;;;22.43;10.43;;;3.20;90.60;;;;;;5053081;28;20055;-73
2021/01/02 07:27:02;;;;;;;19.20;9.57;;;3.20;90.50;;;;;;5052774;28;20021;-73
2021/01/02 07:29:29;;;;;;;23.42;11.48;;;3.10;90.50;;;;;;5052646;28;20112;-73
2021/01/02 07:32:14;;;;;;;26.40;11.90;;;3.10;90.50;;;;;;5054116;28;20029;-73
2021/01/02 07:34:57;;;;;;;23.03;10.93;;;3.20;90.50;;;;;;5052028;28;20083;-73
2021/01/02 07:37:31;;;;;;;26.70;11.43;;;3.20;90.40;;;;;;5053225;28;20036;-73
2021/01/02 07:40:14;;;;;;;22.87;10.23;;;3.10;90.30;;;;;;5052657;28;20056;-73
2021/01/02 07:42:49;;;;;;;22.47;10.03;;;3.20;90.30;;;;;;5053429;28;20037;-73
2021/01/02 07:45:17;;;;;;;22.80;11.47;;;3.20;90.30;;;;;;5053133;28;20079;-73
2021/01/02 07:47:47;;;;;;;23.10;11.20;;;3.20;90.20;;;;;;5052357;28;20029;-73
2021/01/02 07:50:15;;;;;;;19.77;9.53;;;3.20;90.40;;;;;;5052937;28;20035;-73
2021/01/02 07:52:49;;;;;;;25.40;10.83;;;3.10;90.20;;;;;;5053720;28;20462;-73
2021/01/02 07:55:15;;;;;;;22.93;11.07;;;3.10;90.20;;;;;;5053104;28;20028;-73
2021/01/02 07:57:40;;;;;;;21.77;10.60;;;3.10;90.30;;;;;;5053655;28;20059;-74
2021/01/02 08:00:08;;;;;;;25.97;10.87;;;3.20;90.30;;;;;;5052425;28;20490;-73
2021/01/02 08:02:38;;;;;;;24.97;10.60;;;3.20;90.30;;;;;;5053292;28;20029;-73
2021/01/02 08:05:17;;;;;;;20.37;10.20;;;3.10;90.60;;;;;;5052699;28;20028;-73
2021/01/02 08:07:55;;;;;;;23.63;10.73;;;3.10;90.30;;;;;;5053211;28;20021;-74
2021/01/02 08:10:20;;;;;;;23.13;10.13;;;3.20;90.20;;;;;;5051308;28;20048;-74
2021/01/02 08:12:48;;;;;;;20.27;10.67;;;3.20;90.30;;;;;;5053092;28;20466;-73
2021/01/02 08:15:17;;;;;;;21.30;10.27;;;3.10;90.30;;;;;;5051390;28;20087;-73
2021/01/02 08:17:43;;;;;;;22.17;10.40;;;3.20;90.60;;;;;;5053105;28;20024;-74
2021/01/02 08:20:10;;;;;;;21.10;10.80;;;3.20;90.40;;;;;;5052277;28;20029;-73
2021/01/02 08:22:37;;;;;;;23.73;10.87;;;3.20;90.30;;;;;;5052639;28;20493;-74
2021/01/02 08:25:16;;;;;;;19.97;9.20;;;3.20;90.30;;;;;;5051337;28;20139;-73
2021/01/02 08:27:47;;;;;;;25.40;10.47;;;3.30;90.20;;;;;;5052908;28;20025;-74
2021/01/02 08:30:14;;;;;;;21.37;10.20;;;3.20;90.20;;;;;;5052235;28;20032;-73
2021/01/02 08:32:50;;;;;;;21.13;9.47;;;3.20;90.20;;;;;;5052840;28;20108;-73
2021/01/02 08:35:18;;;;;;;21.33;10.30;;;3.20;90.20;;;;;;5052169;28;20025;-73
2021/01/02 08:37:45;;;;;;;22.90;10.13;;;3.20;90.20;;;;;;5052818;28;20028;-73
2021/01/02 08:40:13;;;;;;;22.07;10.00;;;3.20;90.20;;;;;;5052036;28;20043;-74
2021/01/02 08:42:40;;;;;;;18.57;9.73;;;3.20;90.30;;;;;;5052588;28;20029;-74
2021/01/02 08:45:10;;;;;;;21.67;10.17;;;3.30;90.20;;;;;;5051575;28;20505;-72
2021/01/02 08:47:37;;;;;;;21.73;10.63;;;3.30;90.00;;;;;;5052553;28;20104;-73
2021/01/02 08:50:15;;;;;;;21.10;10.33;;;3.30;90.10;;;;;;5052238;28;20437;-73
2021/01/02 08:52:42;;;;;;;21.13;10.00;;;3.30;90.00;;;;;;5050995;28;20036;-73
2021/01/02 08:55:16;;;;;;;20.17;9.77;;;3.30;90.00;;;;;;5049778;28;20536;-73
2021/01/02 08:57:47;;;;;;;22.20;10.30;;;3.30;90.00;;;;;;5052254;28;20021;-73
2021/01/02 09:00:29;;;;;;;16.98;7.93;;;3.30;89.80;;;;;;5050801;28;20029;-73
2021/01/02 09:02:55;;;;;;;;;;;3.40;89.90;;;;;;5052935;28;20033;-73
2021/01/02 09:05:35;;;;;;;21.40;10.60;;;3.40;89.70;;;;;;5051776;28;20085;-74
2021/01/02 09:08:16;;;;;;;18.90;9.30;;;3.30;89.70;;;;;;5050707;28;20067;-74
2021/01/02 09:10:43;;;;;;;20.77;9.30;;;3.30;89.90;;;;;;5051199;28;20029;-74
2021/01/02 09:13:25;;;;;;;18.97;9.77;;;3.40;89.70;;;;;;5051802;28;20029;-73
2021/01/02 09:16:01;;;;;;;23.17;10.37;;;3.50;89.90;;;;;;5051126;28;20367;-74
2021/01/02 09:18:30;;;;;;;22.90;10.50;;;3.50;89.50;;;;;;5051812;28;20246;-73
2021/01/02 09:20:57;;;;;;;20.90;10.57;;;3.50;89.30;;;;;;5052107;28;20028;-73
2021/01/02 09:23:33;;;;;;;18.00;9.50;;;3.50;89.00;;;;;;5050169;28;20068;-73
2021/01/02 09:25:59;;;;;;;22.07;10.20;;;3.50;89.00;;;;;;5051124;28;20169;-74
2021/01/02 09:28:25;;;;;;;25.47;11.00;;;3.50;88.90;;;;;;5050322;28;20454;-73
2021/01/02 09:30:51;;;;;;;24.83;10.30;;;3.60;89.00;;;;;;5052206;28;20025;-74
2021/01/02 09:33:18;;;;;;;21.97;10.80;;;3.50;88.90;;;;;;5050286;28;20029;-74
2021/01/02 09:35:45;;;;;;;23.77;10.03;;;3.50;89.10;;;;;;5052218;28;20054;-74
2021/01/02 09:38:11;;;;;;;23.80;11.40;;;3.50;89.20;;;;;;5051573;28;20473;-73
2021/01/02 09:40:40;;;;;;;21.70;10.97;;;3.60;89.20;;;;;;5050812;28;20056;-74
2021/01/02 09:43:14;;;;;;;21.57;10.57;;;3.60;88.90;;;;;;5052118;28;20025;-74
2021/01/02 09:45:40;;;;;;;22.47;11.17;;;3.60;89.30;;;;;;5052041;28;20033;-73
2021/01/02 09:48:07;;;;;;;22.67;10.13;;;3.70;89.20;;;;;;5050883;28;20025;-73
2021/01/02 09:50:33;;;;;;;20.13;10.17;;;3.60;89.20;;;;;;5049948;28;20032;-73
2021/01/02 09:53:03;;;;;;;19.83;10.23;;;3.60;89.20;;;;;;5052006;28;20070;-73
2021/01/02 09:55:29;;;;;;;24.17;10.97;;;3.60;89.20;;;;;;5051355;28;20037;-73
2021/01/02 09:57:54;;;;;;;16.20;9.43;;;3.60;89.80;;;;;;5052306;28;20485;-74
2021/01/02 10:00:21;;;;;;;23.30;10.73;;;3.70;89.80;;;;;;5050239;28;20032;-74
2021/01/02 10:02:47;;;;;;;21.43;9.60;;;3.70;89.60;;;;;;5051930;28;20532;-74
2021/01/02 10:05:14;;;;;;;20.63;10.67;;;3.70;89.60;;;;;;5051407;28;20462;-73
2021/01/02 10:07:40;;;;;;;21.57;10.60;;;3.70;89.40;;;;;;5054004;28;20071;-74
2021/01/02 10:10:06;;;;;;;19.40;10.07;;;3.80;89.00;;;;;;5054376;28;20413;-74
2021/01/02 10:12:32;;;;;;;21.17;10.57;;;3.90;89.00;;;;;;5054973;28;20033;-74
2021/01/02 10:14:57;;;;;;;20.83;9.80;;;3.90;88.90;;;;;;5054292;28;20029;-74
2021/01/02 10:17:27;;;;;;;22.90;10.77;;;3.90;89.20;;;;;;5054576;28;20467;-74
2021/01/02 10:19:53;;;;;;;19.37;10.30;;;3.80;88.90;;;;;;5055469;28;20112;-73
2021/01/02 10:22:19;;;;;;;21.80;10.53;;;3.80;89.00;;;;;;5054477;28;20094;-74
2021/01/02 10:24:49;;;;;;;20.17;9.80;;;3.90;89.00;;;;;;5055218;28;20482;-73
2021/01/02 10:27:15;;;;;;;18.77;10.33;;;3.90;89.30;;;;;;5053399;28;20032;-73
2021/01/02 10:33:03;;;;;;;18.63;9.53;;;3.90;88.50;;;;;;5054937;28;20028;-73
2021/01/02 10:35:28;;;;;;;18.60;9.27;;;3.90;88.70;;;;;;5054448;28;20029;-73
2021/01/02 10:37:54;;;;;;;19.40;9.37;;;4.00;88.50;;;;;;5055067;28;20024;-73
2021/01/02 10:40:20;;;;;;;21.40;10.47;;;4.00;88.40;;;;;;5054379;28;20029;-73
2021/01/02 10:42:46;;;;;;;21.47;10.10;;;4.10;88.10;;;;;;5054973;28;20025;-73
2021/01/02 10:45:16;;;;;;;20.37;9.63;;;4.10;87.80;;;;;;5053650;28;20071;-73
2021/01/02 10:47:41;;;;;;;20.57;9.87;;;4.20;87.50;;;;;;5054797;28;20029;-73
2021/01/02 10:50:08;;;;;;;19.43;10.10;;;4.10;87.30;;;;;;5053433;28;20040;-73
2021/01/02 10:52:34;;;;;;;17.03;9.07;;;4.10;87.40;;;;;;5054147;28;20033;-73
2021/01/02 10:54:59;;;;;;;18.97;9.50;;;4.20;87.50;;;;;;5054716;28;20107;-74
2021/01/02 10:57:27;;;;;;;21.83;10.03;;;4.20;87.40;;;;;;5054101;28;20458;-74
2021/01/02 10:59:54;;;;;;;18.30;9.87;;;4.20;86.90;;;;;;5054650;28;20021;-74
2021/01/02 11:02:20;;;;;;;18.27;9.57;;;4.10;86.80;;;;;;5052820;28;20515;-73
2021/01/02 11:04:46;;;;;;;18.20;9.30;;;4.10;87.00;;;;;;5054450;28;20488;-73
2021/01/02 11:07:12;;;;;;;17.37;9.57;;;4.20;86.50;;;;;;5053242;28;20025;-74
2021/01/02 11:09:38;;;;;;;18.50;8.67;;;4.20;87.00;;;;;;5052580;28;20524;-73
2021/01/02 11:12:04;;;;;;;18.30;9.10;;;4.20;86.60;;;;;;5054417;28;20025;-73
2021/01/02 11:14:30;;;;;;;18.23;9.67;;;4.20;86.50;;;;;;5053758;28;20021;-73
2021/01/02 11:16:56;;;;;;;20.03;9.30;;;4.20;86.30;;;;;;5052868;28;20036;-74
2021/01/02 11:19:27;;;;;;;17.30;9.43;;;4.30;86.20;;;;;;5053027;28;20021;-73
2021/01/02 11:21:55;;;;;;;18.50;8.87;;;4.30;86.00;;;;;;5054554;28;20033;-74
2021/01/02 11:24:24;;;;;;;17.43;9.03;;;4.40;86.00;;;;;;5053162;28;20055;-73
2021/01/02 11:26:53;;;;;;;16.17;9.03;;;4.40;85.80;;;;;;5052758;28;20382;-73
2021/01/02 11:29:21;;;;;;;16.03;7.93;;;4.40;85.00;;;;;;5053428;28;20040;-73
2021/01/02 11:31:48;;;;;;;15.23;8.27;;;4.40;84.60;;;;;;5053994;28;20210;-73
2021/01/02 11:34:15;;;;;;;16.30;7.73;;;4.50;84.50;;;;;;5052671;28;20406;-74
2021/01/02 11:36:41;;;;;;;14.93;8.00;;;4.50;84.40;;;;;;5052633;28;20021;-73
2021/01/02 11:39:07;;;;;;;18.07;8.47;;;4.40;83.80;;;;;;5053886;28;20021;-73
2021/01/02 11:41:42;;;;;;;14.80;7.97;;;4.50;84.00;;;;;;5053152;28;20029;-73
2021/01/02 11:44:10;;;;;;;17.77;9.10;;;4.50;83.70;;;;;;5053788;28;20477;-73
2021/01/02 11:46:38;;;;;;;14.83;7.80;;;4.40;83.80;;;;;;5053094;28;20033;-73
2021/01/02 11:49:06;;;;;;;15.37;7.83;;;4.40;84.30;;;;;;5053683;28;20029;-73
2021/01/02 11:51:31;;;;;;;17.97;9.03;;;4.40;84.20;;;;;;5052645;28;20040;-73
2021/01/02 11:53:57;;;;;;;16.47;8.10;;;4.40;84.20;;;;;;5053704;28;20029;-73
2021/01/02 11:56:25;;;;;;;15.40;8.17;;;4.40;83.60;;;;;;5052858;28;20032;-73
2021/01/02 11:58:52;;;;;;;14.20;7.97;;;4.50;83.20;;;;;;5053349;28;20098;-73
2021/01/02 12:01:19;;;;;;;14.33;7.73;;;4.50;82.90;;;;;;5051557;28;20032;-72
2021/01/02 12:03:46;;;;;;;11.83;6.83;;;4.60;82.80;;;;;;5053319;28;20024;-73
2021/01/02 12:06:12;;;;;;;13.20;7.37;;;4.60;81.40;;;;;;5052927;28;20039;-73
2021/01/02 12:08:38;;;;;;;13.53;6.90;;;4.60;81.60;;;;;;5052657;28;20025;-73
2021/01/02 12:11:06;;;;;;;14.50;6.97;;;4.60;80.90;;;;;;5051405;28;20021;-73
2021/01/02 12:13:39;;;;;;;11.70;6.70;;;4.60;80.60;;;;;;5051372;28;20119;-73
2021/01/02 12:16:05;;;;;;;11.17;6.50;;;4.60;80.70;;;;;;5053260;28;20036;-73
2021/01/02 12:18:31;;;;;;;11.83;6.60;;;4.60;80.60;;;;;;5052468;28;20032;-73
2021/01/02 12:20:56;;;;;;;12.63;7.00;;;4.60;80.20;;;;;;5051882;28;20033;-73
2021/01/02 12:23:23;;;;;;;13.53;7.00;;;4.60;80.70;;;;;;5052347;28;20505;-73
2021/01/02 12:25:48;;;;;;;13.13;6.87;;;4.60;80.90;;;;;;5053139;28;20045;-73
2021/01/02 12:28:14;;;;;;;12.87;6.70;;;4.60;81.20;;;;;;5051760;28;20108;-73
2021/01/02 12:30:40;;;;;;;13.00;6.67;;;4.60;81.40;;;;;;5051867;28;20031;-73
2021/01/02 12:33:05;;;;;;;13.07;6.50;;;4.70;81.70;;;;;;5052568;28;20116;-73
2021/01/02 12:35:31;;;;;;;9.77;5.97;;;4.70;80.50;;;;;;5052066;28;20470;-73
2021/01/02 12:37:57;;;;;;;10.90;5.87;;;4.70;79.90;;;;;;5051495;28;20025;-73
2021/01/02 12:40:23;;;;;;;9.97;5.50;;;4.70;79.20;;;;;;5050544;28;20029;-73
2021/01/02 12:42:48;;;;;;;9.70;5.57;;;4.70;79.00;;;;;;5051504;28;20123;-73
2021/01/02 12:45:15;;;;;;;15.10;7.13;;;4.70;79.20;;;;;;5052643;28;20112;-73
2021/01/02 12:47:41;;;;;;;11.73;6.00;;;4.70;79.50;;;;;;5052076;28;20032;-73
2021/01/02 12:50:08;;;;;;;11.53;6.10;;;4.70;79.80;;;;;;5052482;28;20103;-73
2021/01/02 12:52:34;;;;;;;12.40;6.50;;;4.70;79.50;;;;;;5052111;28;20454;-73
2021/01/02 12:55:00;;;;;;;13.57;6.43;;;4.70;79.50;;;;;;5051304;28;20075;-73
2021/01/02 12:57:26;;;;;;;10.67;5.67;;;4.70;79.30;;;;;;5051991;28;20044;-73
2021/01/02 12:59:53;;;;;;;12.73;5.80;;;4.80;79.40;;;;;;5051487;28;20111;-73
2021/01/02 13:02:20;;;;;;;12.63;5.67;;;4.80;79.00;;;;;;5052592;28;20029;-73